LYTV/TIV METAR and TAF weather

Enter ICAO airport designator
Station Type Date Time Source
LYTV METAR 2019/02/16 17:00 UTC NOAA

LYTV 161700Z VRB02KT CAVOK 07/02 Q1028 NOSIG


Station Type Date Time Source
LYTV Decoded METAR 2019/02/16 17:00 UTC NOAA

Tivat, Serbia and Montenegro (LYTV) 42-24N 018-44E 5M
Feb 16, 2019 - 12:00 PM EST / 2019.02.16 1700 UTC
Wind: Variable at 2 MPH (2 KT):0
Visibility: greater than 7 mile(s):0
Temperature: 44 F (7 C)
Dew Point: 35 F (2 C)
Relative Humidity: 70%
Pressure (altimeter): 30.36 in. Hg (1028 hPa)
ob: LYTV 161700Z VRB02KT CAVOK 07/02 Q1028 NOSIG
cycle: 17

Station Type Date Time Source
LYTV TAF 2019/02/16 18:25 UTC NOAA

TAF LYTV 161700Z 1618/1718 03008KT CAVOK TX16/1713Z TN01/1705Z PROB30
TEMPO 1704/1707 3000 BR


Example: see airport list